createdAt,value
2023-04-04T00:01:14.144Z,76.76
2023-04-04T00:03:42.804Z,77.73
2023-04-04T00:06:10.939Z,76.87
2023-04-04T00:08:38.949Z,77.08
2023-04-04T00:11:06.944Z,77.24
2023-04-04T00:13:35.304Z,77.58
2023-04-04T00:16:03.299Z,78.83
2023-04-04T00:18:31.468Z,78.07
2023-04-04T00:20:59.436Z,78.78
2023-04-04T00:23:27.317Z,78.31
2023-04-04T00:25:55.341Z,78.69
2023-04-04T00:28:23.310Z,78.53
2023-04-04T00:30:54.628Z,78.17
2023-04-04T00:33:22.714Z,77.78
2023-04-04T00:35:50.840Z,78.28
2023-04-04T00:38:18.849Z,79.45
2023-04-04T00:40:49.281Z,78.41
2023-04-04T00:43:17.466Z,78.22
2023-04-04T00:45:46.553Z,78.88
2023-04-04T00:48:14.639Z,78.75
2023-04-04T00:50:42.665Z,78.42
2023-04-04T00:53:10.876Z,78.73
2023-04-04T00:55:39.440Z,78.74
2023-04-04T00:58:07.465Z,79.34
2023-04-04T01:00:36.092Z,80.01
2023-04-04T01:03:05.926Z,79.46
2023-04-04T01:05:34.030Z,79.63
2023-04-04T01:08:02.467Z,79.73
2023-04-04T01:10:31.868Z,82.27
2023-04-04T01:13:01.630Z,80.70
2023-04-04T01:15:30.126Z,81.75
2023-04-04T01:18:00.397Z,80.32
2023-04-04T01:20:32.566Z,80.72
2023-04-04T01:23:02.005Z,81.16
2023-04-04T01:25:32.299Z,80.70
2023-04-04T01:28:05.008Z,80.63
2023-04-04T01:30:35.422Z,81.01
2023-04-04T01:33:13.916Z,81.10
2023-04-04T01:35:53.539Z,81.26
2023-04-04T01:38:34.014Z,81.37
2023-04-04T01:41:04.008Z,81.39
2023-04-04T01:43:34.252Z,80.95
2023-04-04T01:46:03.699Z,81.29
2023-04-04T01:48:31.974Z,81.38
2023-04-04T01:51:04.767Z,81.87
2023-04-04T01:53:33.656Z,81.50
2023-04-04T01:56:02.052Z,81.19
2023-04-04T01:58:32.421Z,81.68
2023-04-04T02:01:00.548Z,81.64
2023-04-04T02:03:28.717Z,81.94
2023-04-04T02:05:56.615Z,81.88
2023-04-04T02:08:24.858Z,81.45
2023-04-04T02:10:53.891Z,81.67
2023-04-04T02:13:23.770Z,81.97
2023-04-04T02:15:52.540Z,81.39
2023-04-04T02:18:20.906Z,81.52
2023-04-04T02:20:54.916Z,81.46
2023-04-04T02:23:22.838Z,81.78
2023-04-04T02:25:51.431Z,82.43
2023-04-04T02:28:19.692Z,82.65
2023-04-04T02:30:49.141Z,83.80
2023-04-04T02:33:17.318Z,82.78
2023-04-04T02:35:46.030Z,82.40
2023-04-04T02:38:14.157Z,82.45
2023-04-04T02:40:47.953Z,82.15
2023-04-04T02:43:16.193Z,82.28
2023-04-04T02:45:44.620Z,82.25
2023-04-04T02:48:21.673Z,83.10
2023-04-04T02:50:52.145Z,82.52
2023-04-04T02:53:20.068Z,83.03
2023-04-04T02:55:49.615Z,83.17
2023-04-04T02:58:18.264Z,83.62
2023-04-04T03:00:49.408Z,83.89
2023-04-04T03:03:17.518Z,82.86
2023-04-04T03:05:47.336Z,82.94
2023-04-04T03:08:15.887Z,82.80
2023-04-04T03:10:44.912Z,82.70
2023-04-04T03:13:13.058Z,82.46
2023-04-04T03:15:41.697Z,82.38
2023-04-04T03:18:09.747Z,82.77
2023-04-04T03:20:38.167Z,82.56
2023-04-04T03:23:06.605Z,82.81
2023-04-04T03:25:34.564Z,82.95
2023-04-04T03:28:11.786Z,83.02
2023-04-04T03:30:40.969Z,83.96
2023-04-04T03:33:09.991Z,83.90
2023-04-04T03:35:41.974Z,83.33
2023-04-04T03:38:10.932Z,83.46
2023-04-04T03:40:39.843Z,83.56
2023-04-04T03:43:12.979Z,83.85
2023-04-04T03:45:41.665Z,83.79
2023-04-04T03:48:10.721Z,83.93
2023-04-04T03:50:39.697Z,84.03
2023-04-04T03:53:07.873Z,84.07
2023-04-04T03:55:35.861Z,84.07
2023-04-04T03:58:05.019Z,84.22
2023-04-04T04:04:52.619Z,84.03
2023-04-04T04:07:20.664Z,84.14
2023-04-04T04:09:49.117Z,84.05
2023-04-04T04:12:17.340Z,84.40
2023-04-04T04:14:45.203Z,85.14
2023-04-04T04:17:13.344Z,86.03
2023-04-04T04:19:41.287Z,85.54
2023-04-04T04:22:10.356Z,86.91
2023-04-04T04:24:38.358Z,87.48
2023-04-04T04:27:06.983Z,87.09
2023-04-04T04:29:35.075Z,87.53
2023-04-04T04:34:37.753Z,89.21
2023-04-04T04:37:06.296Z,90.08
2023-04-04T04:39:55.658Z,90.87
2023-04-04T04:42:46.462Z,91.08
2023-04-04T04:45:17.123Z,91.47
2023-04-04T04:47:49.522Z,90.95
2023-04-04T04:50:19.248Z,90.64
2023-04-04T04:52:53.036Z,90.64
2023-04-04T04:55:21.320Z,88.35
2023-04-04T04:57:58.633Z,84.71
2023-04-04T05:00:28.963Z,82.57
2023-04-04T05:02:57.174Z,82.49
2023-04-04T05:05:35.111Z,80.75
2023-04-04T05:08:06.010Z,79.57
2023-04-04T05:10:35.649Z,78.80
2023-04-04T05:13:04.127Z,78.52
2023-04-04T05:15:37.123Z,77.63
2023-04-04T05:18:05.801Z,78.13
2023-04-04T05:20:35.552Z,77.22
2023-04-04T05:23:04.842Z,76.15
2023-04-04T05:25:39.654Z,77.10
2023-04-04T05:28:08.412Z,76.51
2023-04-04T05:30:37.502Z,75.70
2023-04-04T05:33:31.927Z,75.74
2023-04-04T05:36:13.030Z,75.37
2023-04-04T05:38:47.129Z,75.33
2023-04-04T05:41:16.349Z,74.73
2023-04-04T05:43:44.877Z,74.87
2023-04-04T05:46:16.790Z,74.25
2023-04-04T05:48:50.884Z,73.26
2023-04-04T05:51:19.602Z,72.26
2023-04-04T05:54:07.546Z,73.46
2023-04-04T05:56:36.041Z,73.44
2023-04-04T05:59:05.993Z,73.27
2023-04-04T06:01:37.017Z,70.37
2023-04-04T06:04:11.597Z,70.72
2023-04-04T06:06:41.340Z,71.64
2023-04-04T06:09:10.051Z,72.11
2023-04-04T06:11:38.502Z,71.32
2023-04-04T06:14:10.074Z,69.66
2023-04-04T06:16:38.362Z,69.51
2023-04-04T06:19:06.413Z,68.69
2023-04-04T06:21:34.315Z,68.38
2023-04-04T06:24:02.702Z,69.20
2023-04-04T06:26:30.898Z,69.81
2023-04-04T06:29:01.197Z,69.26
2023-04-04T06:31:32.645Z,66.63
2023-04-04T06:34:07.146Z,67.64
2023-04-04T06:36:42.023Z,67.61
2023-04-04T06:39:10.054Z,68.21
2023-04-04T06:41:38.561Z,67.64
2023-04-04T06:44:06.800Z,66.85
2023-04-04T06:46:37.662Z,66.32
2023-04-04T06:49:06.410Z,61.88
2023-04-04T06:51:34.978Z,62.42
2023-04-04T06:54:19.032Z,63.97
2023-04-04T06:56:49.950Z,65.93
2023-04-04T06:59:18.517Z,67.12
2023-04-04T07:01:46.569Z,65.42
2023-04-04T07:04:15.018Z,62.30
2023-04-04T07:06:44.054Z,64.56
2023-04-04T07:09:25.950Z,62.56
2023-04-04T07:11:57.045Z,61.49
2023-04-04T07:14:26.102Z,65.57
2023-04-04T07:16:55.342Z,66.15
2023-04-04T07:19:24.708Z,65.12
2023-04-04T07:21:53.735Z,63.90
2023-04-04T07:24:21.844Z,62.77
2023-04-04T07:26:49.852Z,61.11
2023-04-04T07:29:18.491Z,62.29
2023-04-04T07:31:46.600Z,60.86
2023-04-04T07:34:15.038Z,60.68
2023-04-04T07:36:43.482Z,60.33
2023-04-04T07:39:11.643Z,58.59
2023-04-04T07:41:39.875Z,59.82
2023-04-04T07:44:08.133Z,59.34
2023-04-04T07:46:36.299Z,57.46
2023-04-04T07:49:04.337Z,57.79
2023-04-04T07:51:32.880Z,59.67
2023-04-04T07:54:02.432Z,58.89
2023-04-04T07:56:30.598Z,58.58
2023-04-04T07:58:58.587Z,57.75
2023-04-04T08:01:27.128Z,57.96
2023-04-04T08:03:55.280Z,58.43
2023-04-04T08:06:23.775Z,59.40
2023-04-04T08:08:52.415Z,58.78
2023-04-04T08:11:20.440Z,56.00
2023-04-04T08:13:48.960Z,57.76
2023-04-04T08:16:17.748Z,57.63
2023-04-04T08:18:45.821Z,57.03
2023-04-04T08:21:13.967Z,58.00
2023-04-04T08:23:41.920Z,58.59
2023-04-04T08:26:10.066Z,56.93
2023-04-04T08:28:38.805Z,55.06
2023-04-04T08:31:06.865Z,57.13
2023-04-04T08:33:46.647Z,58.07
2023-04-04T08:36:16.379Z,56.85
2023-04-04T08:38:44.694Z,56.15
2023-04-04T08:41:13.478Z,55.64
2023-04-04T08:43:46.561Z,56.03
2023-04-04T08:46:15.926Z,55.29
2023-04-04T08:48:45.021Z,54.19
2023-04-04T08:51:14.905Z,56.12
2023-04-04T08:53:43.015Z,56.52
2023-04-04T08:56:11.237Z,55.02
2023-04-04T08:58:39.599Z,54.62
2023-04-04T09:01:08.288Z,55.24
2023-04-04T09:03:38.177Z,55.94
2023-04-04T09:06:07.352Z,55.82
2023-04-04T09:08:35.573Z,54.69
2023-04-04T09:11:04.547Z,55.59
2023-04-04T09:13:32.665Z,55.58
2023-04-04T09:16:01.330Z,55.29
2023-04-04T09:18:30.077Z,56.19
2023-04-04T09:20:58.170Z,56.16
2023-04-04T09:23:26.175Z,53.96
2023-04-04T09:26:04.113Z,55.28
2023-04-04T09:28:33.793Z,55.09
2023-04-04T09:31:06.994Z,55.68
2023-04-04T09:33:35.475Z,56.26
2023-04-04T09:36:13.453Z,57.25
2023-04-04T09:38:45.880Z,56.82
2023-04-04T09:41:16.190Z,54.81
2023-04-04T09:43:45.647Z,55.23
2023-04-04T09:46:13.733Z,55.01
2023-04-04T09:48:50.552Z,54.49
2023-04-04T09:51:19.084Z,53.68
2023-04-04T09:53:51.982Z,55.02
2023-04-04T09:56:20.276Z,56.17
2023-04-04T09:59:02.392Z,54.55
2023-04-04T10:01:31.584Z,53.73
2023-04-04T10:04:00.033Z,53.23
2023-04-04T10:06:28.681Z,53.05
2023-04-04T10:08:58.490Z,52.87
2023-04-04T10:11:31.829Z,52.80
2023-04-04T10:14:02.792Z,52.49
2023-04-04T10:16:37.168Z,52.55
2023-04-04T10:19:08.085Z,52.18
2023-04-04T10:21:36.837Z,52.73
2023-04-04T10:24:10.015Z,52.86
2023-04-04T10:26:38.614Z,53.22
2023-04-04T10:29:06.910Z,53.52
2023-04-04T10:31:41.158Z,53.57
2023-04-04T10:34:28.521Z,53.97
2023-04-04T10:37:24.844Z,53.96
2023-04-04T10:40:08.072Z,53.67
2023-04-04T10:42:40.709Z,53.61
2023-04-04T10:45:20.525Z,53.51
2023-04-04T10:47:51.726Z,53.24
2023-04-04T10:50:20.987Z,53.88
2023-04-04T10:52:50.569Z,54.27
2023-04-04T10:55:20.016Z,54.50
2023-04-04T10:57:52.578Z,54.65
2023-04-04T11:04:48.072Z,55.26
2023-04-04T11:07:17.672Z,55.18
2023-04-04T11:09:54.104Z,55.08
2023-04-04T11:12:33.698Z,54.47
2023-04-04T11:15:13.062Z,54.99
2023-04-04T11:17:46.019Z,54.35
2023-04-04T11:20:28.505Z,55.00
2023-04-04T11:23:09.028Z,54.86
2023-04-04T11:25:42.148Z,55.35
2023-04-04T11:28:15.371Z,54.37
2023-04-04T11:30:48.508Z,54.00
2023-04-04T11:33:27.615Z,53.80
2023-04-04T11:36:01.284Z,53.89
2023-04-04T11:38:29.880Z,53.73
2023-04-04T11:40:57.951Z,53.56
2023-04-04T11:43:27.035Z,54.28
2023-04-04T11:46:06.912Z,53.78
2023-04-04T11:48:35.067Z,53.82
2023-04-04T11:51:04.064Z,54.28
2023-04-04T11:53:33.313Z,54.34
2023-04-04T11:56:01.822Z,54.79
2023-04-04T11:58:29.980Z,54.85
2023-04-04T12:00:57.909Z,55.10
2023-04-04T12:03:30.088Z,54.73
2023-04-04T12:05:59.493Z,55.07
2023-04-04T12:08:28.225Z,54.89
2023-04-04T12:10:57.768Z,54.72
2023-04-04T12:13:31.445Z,54.74
2023-04-04T12:16:00.811Z,55.37
2023-04-04T12:18:29.823Z,55.35
2023-04-04T12:20:58.030Z,55.91
2023-04-04T12:23:27.675Z,55.56
2023-04-04T12:25:56.996Z,55.91
2023-04-04T12:28:27.299Z,55.95
2023-04-04T12:30:56.821Z,55.51
2023-04-04T12:33:24.840Z,56.23
2023-04-04T12:35:53.730Z,56.49
2023-04-04T12:38:21.912Z,56.25
2023-04-04T12:40:51.776Z,56.33
2023-04-04T12:43:20.856Z,56.35
2023-04-04T12:45:54.948Z,55.99
2023-04-04T12:48:29.029Z,55.83
2023-04-04T12:50:58.637Z,56.31
2023-04-04T12:53:29.534Z,56.94
2023-04-04T12:56:04.700Z,56.78
2023-04-04T12:58:35.843Z,57.21
2023-04-04T13:01:05.747Z,56.80
2023-04-04T13:03:34.756Z,57.22
2023-04-04T13:06:03.107Z,57.11
2023-04-04T13:08:31.772Z,57.01
2023-04-04T13:11:05.253Z,57.02
2023-04-04T13:13:41.061Z,56.98
2023-04-04T13:16:11.829Z,57.16
2023-04-04T13:18:44.302Z,57.31
2023-04-04T13:21:13.784Z,56.91
2023-04-04T13:23:41.892Z,57.45
2023-04-04T13:26:11.183Z,57.27
2023-04-04T13:28:39.337Z,57.03
2023-04-04T13:31:10.059Z,57.43
2023-04-04T13:33:38.152Z,57.11
2023-04-04T13:36:24.179Z,57.11
2023-04-04T13:38:52.218Z,57.13
2023-04-04T13:41:20.701Z,56.87
2023-04-04T13:43:49.272Z,57.00
2023-04-04T13:46:17.878Z,56.82
2023-04-04T13:48:46.361Z,56.85
2023-04-04T13:51:14.477Z,57.35
2023-04-04T13:53:42.469Z,57.63
2023-04-04T13:56:17.921Z,57.34
2023-04-04T13:58:47.244Z,57.77
2023-04-04T14:01:15.498Z,57.68
2023-04-04T14:03:43.876Z,57.75
2023-04-04T14:06:12.547Z,57.61
2023-04-04T14:08:40.527Z,57.58
2023-04-04T14:11:08.663Z,57.85
2023-04-04T14:13:36.902Z,58.06
2023-04-04T14:16:05.295Z,57.44
2023-04-04T14:18:34.632Z,57.96
2023-04-04T14:21:03.656Z,58.21
2023-04-04T14:23:31.945Z,58.17
2023-04-04T14:26:00.702Z,58.40
2023-04-04T14:28:28.962Z,58.12
2023-04-04T14:30:56.906Z,58.03
2023-04-04T14:33:25.180Z,58.10
2023-04-04T14:35:53.274Z,57.38
2023-04-04T14:38:21.366Z,57.20
2023-04-04T14:40:49.595Z,57.13
2023-04-04T14:43:17.651Z,57.19
2023-04-04T14:45:45.918Z,57.25
2023-04-04T14:48:14.278Z,57.53
2023-04-04T14:50:42.941Z,57.85
2023-04-04T14:53:11.118Z,58.03
2023-04-04T14:55:39.549Z,58.05
2023-04-04T14:58:08.722Z,58.32
2023-04-04T15:00:36.760Z,58.02
2023-04-04T15:03:07.374Z,57.64
2023-04-04T15:05:35.661Z,58.26
2023-04-04T15:08:04.085Z,58.18
2023-04-04T15:10:32.128Z,58.42
2023-04-04T15:13:00.252Z,58.16
2023-04-04T15:15:29.191Z,58.14
2023-04-04T15:17:57.992Z,58.25
2023-04-04T15:20:27.180Z,58.60
2023-04-04T15:22:56.363Z,58.58
2023-04-04T15:25:24.540Z,58.79
2023-04-04T15:27:52.975Z,58.72
2023-04-04T15:30:21.295Z,58.97
2023-04-04T15:32:50.469Z,58.92
2023-04-04T15:35:22.105Z,59.04
2023-04-04T15:37:51.521Z,59.30
2023-04-04T15:40:19.984Z,59.41
2023-04-04T15:42:48.473Z,59.33
2023-04-04T15:45:16.684Z,59.30
2023-04-04T15:47:45.359Z,58.92
2023-04-04T15:50:13.546Z,59.01
2023-04-04T15:52:41.937Z,58.71
2023-04-04T15:55:17.114Z,58.39
2023-04-04T15:57:46.028Z,58.10
2023-04-04T16:00:14.611Z,58.18
2023-04-04T16:02:43.102Z,58.27
2023-04-04T16:05:21.102Z,58.52
2023-04-04T16:07:50.030Z,58.61
2023-04-04T16:10:18.569Z,58.70
2023-04-04T16:12:46.565Z,58.71
2023-04-04T16:15:14.705Z,58.30
2023-04-04T16:17:42.781Z,58.12
2023-04-04T16:20:12.098Z,58.05
2023-04-04T16:22:40.054Z,58.02
2023-04-04T16:25:08.992Z,57.89
2023-04-04T16:27:37.406Z,57.57
2023-04-04T16:30:06.320Z,57.94
2023-04-04T16:32:34.590Z,57.83
2023-04-04T16:35:02.906Z,57.51
2023-04-04T16:37:30.979Z,57.54
2023-04-04T16:40:01.518Z,57.73
2023-04-04T16:42:30.068Z,57.40
2023-04-04T16:44:58.320Z,57.75
2023-04-04T16:47:28.031Z,57.40
2023-04-04T16:49:56.464Z,57.55
2023-04-04T16:52:24.708Z,57.55
2023-04-04T16:54:54.451Z,57.53
2023-04-04T16:57:23.104Z,57.77
2023-04-04T16:59:51.882Z,57.98
2023-04-04T17:02:20.294Z,58.01
2023-04-04T17:04:51.212Z,57.94
2023-04-04T17:07:20.946Z,58.08
2023-04-04T17:09:50.714Z,57.85
2023-04-04T17:12:20.315Z,57.88
2023-04-04T17:14:48.206Z,57.64
2023-04-04T17:17:17.457Z,57.68
2023-04-04T17:19:45.882Z,57.64
2023-04-04T17:22:14.117Z,57.62
2023-04-04T17:24:42.516Z,57.66
2023-04-04T17:27:10.875Z,57.61
2023-04-04T17:29:39.258Z,57.66
2023-04-04T17:32:07.814Z,57.35
2023-04-04T17:34:35.811Z,57.54
2023-04-04T17:37:04.199Z,57.68
2023-04-04T17:39:32.805Z,57.72
2023-04-04T17:42:03.395Z,57.88
2023-04-04T17:44:31.981Z,57.93
2023-04-04T17:47:00.521Z,57.76
2023-04-04T17:49:29.506Z,57.99
2023-04-04T17:51:58.255Z,58.06
2023-04-04T17:54:29.615Z,58.19
2023-04-04T17:56:57.753Z,58.17
2023-04-04T17:59:25.797Z,58.25
2023-04-04T18:01:54.097Z,58.42
2023-04-04T18:04:23.979Z,58.50
2023-04-04T18:06:52.450Z,58.82
2023-04-04T18:09:20.967Z,58.67
2023-04-04T18:11:50.721Z,58.73
2023-04-04T18:14:19.457Z,59.00
2023-04-04T18:16:47.616Z,59.36
2023-04-04T18:19:15.744Z,59.16
2023-04-04T18:21:48.738Z,59.76
2023-04-04T18:24:17.537Z,60.06
2023-04-04T18:26:46.048Z,60.55
2023-04-04T18:29:14.981Z,60.37
2023-04-04T18:31:43.162Z,60.33
2023-04-04T18:34:15.214Z,59.67
2023-04-04T18:36:43.901Z,59.84
2023-04-04T18:39:12.449Z,60.22
2023-04-04T18:41:40.697Z,60.36
2023-04-04T18:44:09.194Z,60.56
2023-04-04T18:46:39.325Z,60.17
2023-04-04T18:49:07.983Z,60.47
2023-04-04T18:51:36.892Z,60.25
2023-04-04T18:54:05.332Z,60.39
2023-04-04T18:56:33.327Z,60.52
2023-04-04T18:59:02.268Z,61.25
2023-04-04T19:04:40.281Z,61.53
2023-04-04T19:07:11.008Z,61.30
2023-04-04T19:09:41.127Z,61.50
2023-04-04T19:12:09.721Z,61.92
2023-04-04T19:14:37.983Z,61.83
2023-04-04T19:17:06.058Z,61.24
2023-04-04T19:19:34.545Z,61.14
2023-04-04T19:22:03.752Z,61.27
2023-04-04T19:24:33.348Z,62.24
2023-04-04T19:27:03.122Z,62.40
2023-04-04T19:29:32.172Z,62.68
2023-04-04T19:32:05.671Z,62.02
2023-04-04T19:34:34.337Z,62.90
2023-04-04T19:37:02.668Z,63.06
2023-04-04T19:39:33.668Z,63.40
2023-04-04T19:42:02.160Z,64.11
2023-04-04T19:44:31.441Z,64.36
2023-04-04T19:47:01.094Z,64.42
2023-04-04T19:49:30.662Z,63.48
2023-04-04T19:52:01.185Z,63.93
2023-04-04T19:54:34.423Z,63.90
2023-04-04T19:57:09.009Z,64.44
2023-04-04T20:00:02.060Z,64.66
2023-04-04T20:02:36.691Z,64.37
2023-04-04T20:05:53.789Z,64.05
2023-04-04T20:08:21.870Z,65.06
2023-04-04T20:10:53.547Z,64.77
2023-04-04T20:13:21.514Z,64.76
2023-04-04T20:15:50.055Z,65.27
2023-04-04T20:18:25.519Z,65.36
2023-04-04T20:21:00.372Z,65.61
2023-04-04T20:23:31.440Z,64.88
2023-04-04T20:26:08.796Z,66.69
2023-04-04T20:28:37.172Z,65.67
2023-04-04T20:31:12.220Z,65.68
2023-04-04T20:33:40.853Z,65.68
2023-04-04T20:36:30.212Z,65.91
2023-04-04T20:38:59.297Z,66.26
2023-04-04T20:41:27.473Z,65.96
2023-04-04T20:43:57.587Z,66.30
2023-04-04T20:46:27.591Z,67.31
2023-04-04T20:48:58.324Z,66.94
2023-04-04T20:51:31.185Z,66.95
2023-04-04T20:54:02.458Z,66.88
2023-04-04T20:56:40.596Z,67.26
2023-04-04T20:59:31.537Z,67.78
2023-04-04T21:02:16.641Z,67.03
2023-04-04T21:04:46.207Z,67.04
2023-04-04T21:07:36.517Z,67.36
2023-04-04T21:10:21.667Z,67.58
2023-04-04T21:12:51.456Z,67.61
2023-04-04T21:15:28.615Z,67.72
2023-04-04T21:18:00.852Z,67.82
2023-04-04T21:20:47.205Z,68.16
2023-04-04T21:23:27.636Z,68.28
2023-04-04T21:25:57.965Z,68.15
2023-04-04T21:28:31.298Z,68.45
2023-04-04T21:31:00.677Z,68.53
2023-04-04T21:33:28.790Z,68.31
2023-04-04T21:35:56.768Z,68.39
2023-04-04T21:38:35.336Z,68.51
2023-04-04T21:41:30.696Z,69.04
2023-04-04T21:44:07.254Z,68.99
2023-04-04T21:46:38.041Z,68.74
2023-04-04T21:49:07.932Z,68.86
2023-04-04T21:51:36.887Z,69.11
2023-04-04T21:54:05.592Z,68.92
2023-04-04T21:56:33.924Z,68.86
2023-04-04T21:59:04.486Z,69.15
2023-04-04T22:01:32.806Z,69.36
2023-04-04T22:04:02.232Z,69.25
2023-04-04T22:06:31.112Z,69.48
2023-04-04T22:09:01.929Z,69.39
2023-04-04T22:11:30.401Z,69.62
2023-04-04T22:14:04.905Z,69.68
2023-04-04T22:16:39.653Z,69.70
2023-04-04T22:19:11.719Z,69.69
2023-04-04T22:21:48.216Z,69.78
2023-04-04T22:24:18.482Z,70.32
2023-04-04T22:26:47.021Z,70.24
2023-04-04T22:29:15.020Z,70.45
2023-04-04T22:31:43.441Z,70.43
2023-04-04T22:34:14.691Z,70.42
2023-04-04T22:36:43.843Z,70.80
2023-04-04T22:39:16.351Z,70.87
2023-04-04T22:41:44.534Z,70.59
2023-04-04T22:44:13.265Z,70.65
2023-04-04T22:46:41.729Z,70.64
2023-04-04T22:49:10.055Z,70.85
2023-04-04T22:51:45.661Z,70.90
2023-04-04T22:54:15.419Z,71.40
2023-04-04T22:56:43.696Z,71.40
2023-04-04T22:59:12.398Z,71.33
2023-04-04T23:01:40.551Z,71.45
2023-04-04T23:04:08.771Z,71.57
2023-04-04T23:06:38.583Z,71.46
2023-04-04T23:09:08.177Z,71.55
2023-04-04T23:11:38.147Z,71.40
2023-04-04T23:14:08.589Z,71.53
2023-04-04T23:16:37.417Z,71.59
2023-04-04T23:19:05.692Z,71.46
2023-04-04T23:21:34.396Z,72.01
2023-04-04T23:24:07.208Z,72.26
2023-04-04T23:26:35.751Z,72.09
2023-04-04T23:29:03.992Z,72.38
2023-04-04T23:31:32.051Z,72.31
2023-04-04T23:34:00.818Z,72.32
2023-04-04T23:36:29.779Z,72.32
2023-04-04T23:38:57.735Z,72.57
2023-04-04T23:41:26.700Z,72.76
2023-04-04T23:43:54.958Z,72.78
2023-04-04T23:46:24.002Z,72.92
2023-04-04T23:48:52.111Z,73.04
2023-04-04T23:51:21.705Z,72.76
2023-04-04T23:53:49.926Z,72.73
2023-04-04T23:56:18.326Z,72.95
2023-04-04T23:58:46.416Z,73.10
